createdAt,value
2023-02-11T00:00:01.528Z,8.87
2023-02-11T00:01:01.442Z,8.97
2023-02-11T00:02:01.512Z,8.99
2023-02-11T00:03:01.543Z,8.59
2023-02-11T00:04:01.475Z,8.49
2023-02-11T00:05:01.530Z,8.46
2023-02-11T00:06:01.580Z,8.54
2023-02-11T00:07:01.628Z,8.75
2023-02-11T00:08:01.641Z,8.81
2023-02-11T00:09:01.657Z,8.89
2023-02-11T00:10:01.695Z,8.74
2023-02-11T00:11:01.756Z,8.78
2023-02-11T00:12:01.747Z,8.69
2023-02-11T00:13:01.765Z,8.71
2023-02-11T00:14:01.766Z,8.71
2023-02-11T00:15:01.758Z,8.27
2023-02-11T00:16:01.825Z,8.49
2023-02-11T00:17:01.869Z,8.54
2023-02-11T00:18:01.862Z,8.44
2023-02-11T00:19:01.914Z,8.49
2023-02-11T00:20:01.938Z,8.64
2023-02-11T00:21:01.920Z,8.78
2023-02-11T00:22:01.993Z,8.54
2023-02-11T00:23:02.052Z,8.53
2023-02-11T00:24:02.158Z,8.45
2023-02-11T00:25:02.183Z,8.50
2023-02-11T00:26:02.239Z,8.50
2023-02-11T00:27:02.291Z,8.35
2023-02-11T00:28:02.320Z,8.39
2023-02-11T00:29:02.379Z,8.46
2023-02-11T00:30:02.323Z,8.64
2023-02-11T00:31:02.394Z,8.92
2023-02-11T00:32:02.417Z,8.92
2023-02-11T00:33:02.483Z,8.89
2023-02-11T00:34:02.513Z,8.79
2023-02-11T00:35:02.519Z,8.87
2023-02-11T00:36:02.549Z,8.68
2023-02-11T00:37:02.609Z,8.90
2023-02-11T00:38:02.660Z,8.84
2023-02-11T00:39:02.643Z,8.74
2023-02-11T00:40:06.253Z,8.79
2023-02-11T00:41:02.707Z,8.74
2023-02-11T00:42:02.737Z,8.74
2023-02-11T00:43:02.776Z,8.64
2023-02-11T00:44:02.736Z,8.66
2023-02-11T00:45:02.799Z,8.69
2023-02-11T00:46:02.896Z,8.68
2023-02-11T00:47:02.858Z,8.54
2023-02-11T00:48:02.928Z,8.68
2023-02-11T00:49:02.959Z,8.59
2023-02-11T00:50:02.958Z,8.66
2023-02-11T00:51:02.989Z,8.66
2023-02-11T00:52:03.008Z,8.59
2023-02-11T00:53:03.040Z,8.56
2023-02-11T00:54:03.039Z,8.52
2023-02-11T00:55:03.098Z,8.60
2023-02-11T00:56:03.139Z,8.64
2023-02-11T00:57:03.199Z,8.54
2023-02-11T00:58:03.189Z,8.52
2023-02-11T00:59:03.234Z,8.64
2023-02-11T01:00:03.260Z,8.72
2023-02-11T01:01:03.343Z,8.74
2023-02-11T01:02:03.329Z,8.53
2023-02-11T01:03:03.374Z,8.53
2023-02-11T01:04:03.421Z,8.57
2023-02-11T01:05:03.431Z,8.57
2023-02-11T01:06:03.467Z,8.57
2023-02-11T01:07:03.513Z,8.71
2023-02-11T01:08:04.260Z,8.78
2023-02-11T01:09:03.555Z,8.87
2023-02-11T01:10:03.616Z,8.60
2023-02-11T01:11:03.676Z,8.68
2023-02-11T01:12:03.746Z,8.81
2023-02-11T01:13:03.786Z,8.71
2023-02-11T01:14:03.751Z,8.66
2023-02-11T01:15:03.800Z,8.53
2023-02-11T01:16:03.866Z,8.41
2023-02-11T01:17:03.817Z,8.54
2023-02-11T01:18:03.790Z,8.63
2023-02-11T01:19:03.859Z,8.71
2023-02-11T01:20:03.888Z,8.77
2023-02-11T01:21:03.979Z,8.54
2023-02-11T01:22:03.938Z,8.61
2023-02-11T01:23:03.999Z,8.52
2023-02-11T01:24:04.029Z,8.57
2023-02-11T01:25:04.090Z,8.64
2023-02-11T01:26:04.042Z,8.53
2023-02-11T01:27:04.161Z,8.49
2023-02-11T01:28:04.923Z,8.21
2023-02-11T01:29:04.193Z,8.39
2023-02-11T01:30:05.371Z,8.50
2023-02-11T01:31:04.383Z,8.42
2023-02-11T01:32:04.346Z,8.44
2023-02-11T01:33:04.257Z,8.49
2023-02-11T01:34:04.342Z,8.38
2023-02-11T01:35:04.358Z,8.28
2023-02-11T01:36:04.369Z,8.42
2023-02-11T01:37:04.382Z,8.42
2023-02-11T01:38:04.367Z,8.32
2023-02-11T01:39:04.375Z,8.72
2023-02-11T01:40:04.450Z,8.86
2023-02-11T01:41:04.374Z,8.54
2023-02-11T01:42:04.384Z,8.50
2023-02-11T01:43:04.510Z,8.53
2023-02-11T01:44:05.386Z,8.56
2023-02-11T01:45:05.254Z,8.52
2023-02-11T01:46:04.711Z,8.27
2023-02-11T01:47:05.328Z,8.28
2023-02-11T01:48:04.688Z,8.35
2023-02-11T01:49:04.746Z,8.26
2023-02-11T01:50:04.663Z,8.20
2023-02-11T01:51:04.713Z,8.28
2023-02-11T01:52:05.533Z,8.38
2023-02-11T01:53:05.660Z,8.32
2023-02-11T01:54:04.711Z,8.28
2023-02-11T01:55:04.767Z,8.28
2023-02-11T01:56:04.845Z,8.23
2023-02-11T01:57:04.918Z,8.44
2023-02-11T01:58:04.983Z,8.41
2023-02-11T01:59:04.939Z,8.53
2023-02-11T02:00:05.024Z,8.45
2023-02-11T02:01:04.999Z,8.27
2023-02-11T02:02:05.058Z,8.34
2023-02-11T02:03:05.075Z,8.46
2023-02-11T02:04:05.079Z,8.68
2023-02-11T02:05:05.106Z,8.68
2023-02-11T02:06:05.092Z,8.69
2023-02-11T02:07:05.169Z,8.39
2023-02-11T02:08:05.185Z,8.45
2023-02-11T02:09:05.133Z,8.44
2023-02-11T02:10:05.132Z,8.61
2023-02-11T02:11:05.142Z,8.46
2023-02-11T02:12:05.141Z,8.57
2023-02-11T02:13:05.183Z,8.49
2023-02-11T02:14:05.180Z,8.24
2023-02-11T02:15:05.221Z,8.34
2023-02-11T02:16:06.691Z,8.21
2023-02-11T02:17:05.194Z,8.26
2023-02-11T02:18:05.192Z,8.27
2023-02-11T02:19:05.289Z,8.36
2023-02-11T02:20:05.276Z,8.54
2023-02-11T02:21:05.320Z,8.36
2023-02-11T02:22:05.333Z,8.45
2023-02-11T02:23:05.371Z,8.35
2023-02-11T02:24:05.423Z,8.45
2023-02-11T02:25:05.462Z,8.57
2023-02-11T02:26:05.498Z,8.45
2023-02-11T02:27:05.530Z,8.39
2023-02-11T02:28:05.590Z,8.34
2023-02-11T02:29:05.590Z,8.45
2023-02-11T02:30:05.623Z,8.52
2023-02-11T02:31:05.859Z,8.54
2023-02-11T02:32:05.703Z,8.54
2023-02-11T02:33:20.492Z,8.52
2023-02-11T02:34:05.737Z,8.75
2023-02-11T02:35:05.771Z,8.46
2023-02-11T02:36:05.811Z,8.21
2023-02-11T02:37:05.851Z,8.21
2023-02-11T02:38:05.850Z,8.32
2023-02-11T02:39:05.892Z,8.50
2023-02-11T02:40:05.888Z,8.49
2023-02-11T02:41:05.915Z,8.64
2023-02-11T02:42:06.041Z,8.64
2023-02-11T02:43:06.085Z,8.50
2023-02-11T02:44:06.059Z,8.56
2023-02-11T02:46:32.893Z,8.34
2023-02-11T02:47:32.059Z,8.23
2023-02-11T02:48:32.024Z,8.46
2023-02-11T02:49:32.030Z,8.60
2023-02-11T02:50:32.085Z,8.53
2023-02-11T02:51:32.128Z,8.52
2023-02-11T02:52:32.151Z,8.41
2023-02-11T02:53:32.175Z,8.57
2023-02-11T02:54:32.180Z,8.31
2023-02-11T02:55:32.150Z,8.45
2023-02-11T02:56:32.179Z,8.42
2023-02-11T02:57:32.190Z,8.53
2023-02-11T02:58:32.198Z,8.45
2023-02-11T02:59:32.198Z,8.52
2023-02-11T03:00:32.293Z,8.41
2023-02-11T03:01:32.217Z,8.42
2023-02-11T03:02:32.293Z,8.46
2023-02-11T03:03:33.194Z,8.60
2023-02-11T03:04:32.348Z,8.66
2023-02-11T03:05:32.379Z,8.59
2023-02-11T03:06:32.353Z,8.59
2023-02-11T03:07:32.340Z,8.56
2023-02-11T03:08:32.372Z,8.69
2023-02-11T03:09:32.440Z,8.56
2023-02-11T03:10:32.487Z,8.53
2023-02-11T03:11:32.499Z,8.46
2023-02-11T03:12:32.571Z,8.50
2023-02-11T03:13:32.571Z,8.46
2023-02-11T03:14:32.550Z,8.18
2023-02-11T03:15:32.585Z,8.17
2023-02-11T03:16:32.627Z,8.28
2023-02-11T03:17:32.611Z,8.36
2023-02-11T03:18:32.661Z,8.49
2023-02-11T03:19:32.651Z,8.35
2023-02-11T03:20:32.674Z,8.35
2023-02-11T03:21:32.732Z,8.36
2023-02-11T03:22:32.782Z,8.42
2023-02-11T03:23:32.810Z,8.59
2023-02-11T03:24:32.802Z,8.46
2023-02-11T03:25:32.863Z,8.24
2023-02-11T03:26:32.947Z,8.20
2023-02-11T03:27:32.983Z,8.24
2023-02-11T03:28:33.122Z,8.34
2023-02-11T03:29:33.066Z,8.57
2023-02-11T03:30:33.092Z,8.53
2023-02-11T03:31:33.284Z,8.45
2023-02-11T03:32:33.144Z,8.26
2023-02-11T03:33:33.154Z,8.32
2023-02-11T03:34:33.174Z,8.39
2023-02-11T03:35:33.232Z,8.23
2023-02-11T03:36:33.306Z,8.18
2023-02-11T03:37:33.294Z,8.28
2023-02-11T03:38:33.306Z,8.21
2023-02-11T03:39:33.370Z,8.14
2023-02-11T03:40:33.395Z,8.23
2023-02-11T03:41:33.467Z,8.14
2023-02-11T03:42:33.447Z,8.26
2023-02-11T03:43:33.507Z,8.35
2023-02-11T03:44:33.537Z,8.24
2023-02-11T03:45:33.688Z,8.36
2023-02-11T03:46:33.669Z,8.32
2023-02-11T03:47:33.669Z,8.24
2023-02-11T03:48:33.704Z,8.26
2023-02-11T03:49:33.696Z,8.27
2023-02-11T03:50:33.671Z,8.16
2023-02-11T03:51:33.750Z,8.23
2023-02-11T03:52:33.811Z,8.20
2023-02-11T03:53:33.809Z,8.36
2023-02-11T03:54:33.825Z,8.64
2023-02-11T03:55:33.800Z,8.57
2023-02-11T03:56:33.809Z,8.71
2023-02-11T03:57:33.810Z,8.77
2023-02-11T03:58:33.842Z,8.56
2023-02-11T03:59:33.851Z,8.45
2023-02-11T04:00:33.911Z,8.24
2023-02-11T04:01:33.930Z,8.26
2023-02-11T04:02:33.972Z,8.23
2023-02-11T04:03:34.078Z,8.45
2023-02-11T04:04:34.051Z,8.61
2023-02-11T04:05:34.073Z,8.77
2023-02-11T04:06:34.084Z,8.97
2023-02-11T04:07:34.104Z,8.95
2023-02-11T04:08:34.072Z,8.96
2023-02-11T04:09:34.116Z,8.64
2023-02-11T04:10:34.187Z,8.66
2023-02-11T04:11:34.175Z,8.68
2023-02-11T04:12:34.206Z,8.63
2023-02-11T04:13:34.208Z,8.57
2023-02-11T04:14:34.261Z,8.39
2023-02-11T04:15:34.253Z,8.21
2023-02-11T04:16:34.384Z,8.09
2023-02-11T04:17:34.355Z,8.16
2023-02-11T04:18:34.404Z,8.17
2023-02-11T04:19:34.455Z,8.24
2023-02-11T04:20:34.458Z,8.34
2023-02-11T04:21:34.455Z,8.42
2023-02-11T04:22:34.448Z,8.23
2023-02-11T04:23:34.475Z,8.14
2023-02-11T04:24:34.543Z,8.23
2023-02-11T04:25:34.620Z,8.45
2023-02-11T04:26:34.633Z,8.36
2023-02-11T04:27:34.643Z,8.36
2023-02-11T04:28:34.667Z,8.39
2023-02-11T04:29:34.682Z,8.39
2023-02-11T04:30:34.693Z,8.44
2023-02-11T04:31:34.771Z,8.36
2023-02-11T04:32:34.718Z,8.39
2023-02-11T04:33:34.719Z,8.35
2023-02-11T04:34:34.716Z,8.39
2023-02-11T04:35:34.813Z,8.44
2023-02-11T04:36:35.050Z,8.18
2023-02-11T04:37:34.869Z,8.27
2023-02-11T04:38:34.910Z,8.46
2023-02-11T04:39:34.901Z,8.50
2023-02-11T04:40:34.920Z,8.36
2023-02-11T04:41:35.900Z,8.21
2023-02-11T04:42:35.051Z,8.16
2023-02-11T04:43:35.047Z,8.41
2023-02-11T04:44:35.026Z,8.60
2023-02-11T04:45:35.036Z,8.35
2023-02-11T04:46:35.029Z,8.38
2023-02-11T04:47:35.123Z,8.54
2023-02-11T04:48:35.944Z,8.38
2023-02-11T04:49:35.264Z,8.46
2023-02-11T04:50:35.186Z,8.41
2023-02-11T04:51:35.235Z,8.60
2023-02-11T04:52:35.399Z,8.53
2023-02-11T04:53:35.354Z,8.61
2023-02-11T04:54:35.347Z,8.34
2023-02-11T04:55:35.400Z,8.38
2023-02-11T04:56:35.441Z,8.36
2023-02-11T04:57:35.535Z,8.28
2023-02-11T04:58:35.508Z,8.32
2023-02-11T04:59:35.545Z,8.39
2023-02-11T05:00:35.652Z,8.27
2023-02-11T05:01:35.728Z,8.14
2023-02-11T05:02:35.583Z,8.32
2023-02-11T05:03:35.597Z,8.31
2023-02-11T05:04:35.605Z,8.52
2023-02-11T05:05:35.610Z,8.69
2023-02-11T05:06:35.629Z,8.71
2023-02-11T05:07:35.688Z,8.68
2023-02-11T05:08:35.716Z,8.60
2023-02-11T05:09:35.749Z,8.66
2023-02-11T05:10:35.783Z,8.54
2023-02-11T05:11:35.807Z,8.52
2023-02-11T05:12:35.849Z,8.50
2023-02-11T05:13:35.970Z,8.63
2023-02-11T05:14:35.908Z,8.64
2023-02-11T05:15:35.968Z,8.64
2023-02-11T05:16:36.101Z,8.68
2023-02-11T05:17:36.110Z,8.63
2023-02-11T05:18:36.127Z,8.61
2023-02-11T05:19:36.150Z,8.56
2023-02-11T05:20:36.139Z,8.61
2023-02-11T05:21:36.177Z,8.50
2023-02-11T05:22:36.261Z,8.71
2023-02-11T05:23:36.303Z,8.78
2023-02-11T05:24:36.320Z,8.92
2023-02-11T05:25:36.338Z,8.79
2023-02-11T05:26:36.380Z,8.78
2023-02-11T05:27:36.423Z,8.42
2023-02-11T05:28:36.503Z,8.42
2023-02-11T05:29:36.481Z,8.42
2023-02-11T05:30:36.508Z,8.38
2023-02-11T05:31:36.482Z,8.46
2023-02-11T05:32:36.523Z,8.46
2023-02-11T05:33:36.556Z,8.45
2023-02-11T05:34:36.620Z,8.66
2023-02-11T05:35:36.640Z,8.72
2023-02-11T05:36:36.661Z,8.87
2023-02-11T05:37:36.782Z,8.75
2023-02-11T05:38:36.713Z,8.56
2023-02-11T05:39:36.712Z,8.41
2023-02-11T05:40:36.715Z,8.52
2023-02-11T05:41:36.745Z,8.63
2023-02-11T05:42:36.807Z,8.63
2023-02-11T05:43:36.868Z,8.39
2023-02-11T05:44:36.943Z,8.54
2023-02-11T05:45:36.963Z,8.54
2023-02-11T05:46:37.031Z,8.26
2023-02-11T05:47:36.986Z,8.41
2023-02-11T05:48:37.016Z,8.59
2023-02-11T05:49:37.074Z,8.64
2023-02-11T05:50:37.109Z,8.46
2023-02-11T05:51:37.157Z,8.38
2023-02-11T05:52:37.182Z,8.41
2023-02-11T05:53:37.215Z,8.36
2023-02-11T05:54:37.258Z,8.45
2023-02-11T05:55:37.245Z,8.57
2023-02-11T05:56:37.333Z,8.66
2023-02-11T05:57:37.376Z,8.78
2023-02-11T05:58:37.386Z,8.49
2023-02-11T05:59:37.468Z,8.50
2023-02-11T06:00:37.454Z,8.46
2023-02-11T06:01:37.448Z,8.60
2023-02-11T06:02:37.511Z,8.71
2023-02-11T06:03:37.563Z,8.86
2023-02-11T06:04:37.605Z,8.72
2023-02-11T06:05:37.590Z,8.39
2023-02-11T06:06:37.657Z,8.31
2023-02-11T06:07:37.677Z,8.49
2023-02-11T06:08:39.319Z,8.71
2023-02-11T06:09:37.757Z,8.74
2023-02-11T06:10:37.778Z,8.63
2023-02-11T06:11:37.776Z,8.63
2023-02-11T06:12:37.833Z,8.74
2023-02-11T06:13:37.863Z,8.97
2023-02-11T06:14:37.892Z,8.78
2023-02-11T06:15:37.939Z,8.86
2023-02-11T06:16:37.919Z,8.99
2023-02-11T06:17:37.924Z,8.82
2023-02-11T06:18:37.924Z,8.52
2023-02-11T06:19:37.971Z,8.71
2023-02-11T06:20:37.991Z,8.64
2023-02-11T06:21:43.733Z,8.63
2023-02-11T06:22:38.064Z,8.66
2023-02-11T06:23:38.062Z,8.63
2023-02-11T06:24:59.774Z,8.66
2023-02-11T06:25:38.105Z,8.64
2023-02-11T06:26:38.112Z,8.66
2023-02-11T06:27:38.124Z,8.84
2023-02-11T06:28:40.766Z,8.66
2023-02-11T06:29:38.202Z,8.79
2023-02-11T06:30:38.266Z,8.84
2023-02-11T06:31:38.373Z,8.59
2023-02-11T06:32:46.170Z,8.49
2023-02-11T06:33:38.311Z,8.46
2023-02-11T06:34:38.326Z,8.72
2023-02-11T06:35:38.414Z,8.93
2023-02-11T06:36:38.409Z,8.66
2023-02-11T06:37:38.452Z,8.81
2023-02-11T06:38:38.522Z,9.13
2023-02-11T06:39:38.547Z,9.05
2023-02-11T06:40:38.595Z,9.08
2023-02-11T06:41:38.587Z,8.81
2023-02-11T06:42:38.625Z,8.96
2023-02-11T06:43:38.687Z,8.74
2023-02-11T06:44:38.725Z,8.56
2023-02-11T06:45:38.720Z,8.82
2023-02-11T06:46:38.762Z,8.74
2023-02-11T06:47:38.779Z,8.60
2023-02-11T06:48:38.849Z,8.54
2023-02-11T06:49:38.888Z,8.74
2023-02-11T06:50:38.968Z,8.84
2023-02-11T06:51:38.908Z,9.02
2023-02-11T06:52:38.932Z,8.71
2023-02-11T06:53:38.952Z,8.56
2023-02-11T06:54:38.970Z,8.60
2023-02-11T06:55:39.048Z,8.77
2023-02-11T06:56:39.039Z,8.71
2023-02-11T06:57:39.125Z,8.69
2023-02-11T06:58:39.144Z,8.82
2023-02-11T06:59:39.145Z,8.96
2023-02-11T07:00:39.204Z,8.87
2023-02-11T07:01:39.320Z,8.90
2023-02-11T07:02:39.436Z,8.68
2023-02-11T07:03:39.313Z,8.64
2023-02-11T07:04:39.332Z,8.72
2023-02-11T07:05:39.349Z,8.69
2023-02-11T07:06:39.372Z,8.89
2023-02-11T07:07:39.385Z,8.97
2023-02-11T07:08:39.405Z,8.59
2023-02-11T07:09:39.452Z,8.64
2023-02-11T07:10:39.470Z,8.74
2023-02-11T07:11:39.483Z,8.61
2023-02-11T07:12:39.503Z,8.68
2023-02-11T07:13:39.562Z,8.63
2023-02-11T07:14:39.624Z,8.74
2023-02-11T07:15:39.595Z,8.64
2023-02-11T07:16:39.751Z,8.93
2023-02-11T07:17:39.714Z,8.89
2023-02-11T07:18:39.716Z,8.72
2023-02-11T07:19:39.769Z,8.63
2023-02-11T07:20:39.824Z,8.72
2023-02-11T07:21:39.806Z,8.75
2023-02-11T07:22:39.828Z,8.74
2023-02-11T07:23:39.856Z,8.66
2023-02-11T07:24:39.919Z,8.81
2023-02-11T07:25:39.926Z,8.75
2023-02-11T07:26:39.947Z,9.00
2023-02-11T07:27:39.986Z,8.97
2023-02-11T07:28:39.997Z,8.68
2023-02-11T07:29:40.057Z,8.59
2023-02-11T07:30:40.209Z,8.57
2023-02-11T07:31:40.204Z,8.68
2023-02-11T07:32:40.111Z,8.68
2023-02-11T07:33:40.132Z,8.74
2023-02-11T07:34:40.214Z,8.82
2023-02-11T07:35:42.607Z,8.56
2023-02-11T07:36:40.279Z,8.61
2023-02-11T07:37:40.306Z,8.87
2023-02-11T07:38:40.364Z,8.86
2023-02-11T07:39:40.333Z,8.82
2023-02-11T07:40:40.417Z,8.81
2023-02-11T07:41:40.446Z,8.68
2023-02-11T07:42:40.444Z,8.64
2023-02-11T07:43:40.518Z,8.77
2023-02-11T07:44:40.475Z,8.78
2023-02-11T07:45:40.591Z,8.72
2023-02-11T07:46:40.607Z,8.74
2023-02-11T07:47:40.602Z,8.90
2023-02-11T07:48:40.654Z,8.77
2023-02-11T07:49:40.661Z,8.68
2023-02-11T07:50:40.780Z,8.66
2023-02-11T07:51:40.772Z,8.74
2023-02-11T07:52:40.824Z,9.18
2023-02-11T07:53:40.834Z,9.12
2023-02-11T07:54:40.889Z,9.19
2023-02-11T07:55:40.924Z,9.15
2023-02-11T07:56:40.952Z,9.00
2023-02-11T07:57:40.943Z,9.30
2023-02-11T07:58:40.968Z,9.33
2023-02-11T07:59:40.973Z,9.19
2023-02-11T08:00:41.034Z,9.36
2023-02-11T08:01:41.073Z,9.03
2023-02-11T08:02:41.104Z,9.13
2023-02-11T08:03:41.156Z,9.19
2023-02-11T08:04:41.152Z,9.29
2023-02-11T08:05:41.208Z,8.86
2023-02-11T08:06:41.278Z,9.18
2023-02-11T08:07:41.266Z,8.87
2023-02-11T08:08:41.271Z,8.82
2023-02-11T08:09:41.310Z,8.90
2023-02-11T08:10:41.390Z,9.13
2023-02-11T08:11:41.450Z,9.13
2023-02-11T08:12:41.474Z,8.96
2023-02-11T08:13:41.546Z,9.16
2023-02-11T08:14:41.548Z,9.12
2023-02-11T08:15:41.627Z,9.08
2023-02-11T08:16:41.814Z,8.96
2023-02-11T08:17:41.725Z,8.89
2023-02-11T08:18:41.685Z,8.72
2023-02-11T08:19:41.783Z,8.86
2023-02-11T08:20:41.813Z,8.87
2023-02-11T08:21:41.875Z,8.96
2023-02-11T08:22:41.882Z,8.90
2023-02-11T08:23:41.947Z,8.87
2023-02-11T08:24:42.064Z,8.79
2023-02-11T08:25:41.978Z,8.84
2023-02-11T08:26:41.964Z,8.87
2023-02-11T08:27:42.020Z,8.97
2023-02-11T08:28:42.076Z,8.77
2023-02-11T08:29:42.070Z,8.78
2023-02-11T08:30:42.132Z,8.79
2023-02-11T08:31:42.314Z,9.03
2023-02-11T08:32:42.095Z,9.16
2023-02-11T08:33:42.105Z,9.19
2023-02-11T08:34:42.115Z,9.00
2023-02-11T08:35:42.136Z,9.12
2023-02-11T08:36:42.171Z,8.97
2023-02-11T08:37:42.211Z,8.93
2023-02-11T08:38:42.256Z,8.92
2023-02-11T08:39:42.268Z,9.00
2023-02-11T08:40:42.276Z,8.84
2023-02-11T08:41:42.335Z,8.82
2023-02-11T08:44:08.329Z,9.26
2023-02-11T08:45:08.398Z,9.37
2023-02-11T08:46:08.557Z,9.13
2023-02-11T08:47:08.471Z,9.19
2023-02-11T08:48:08.491Z,8.87
2023-02-11T08:49:09.521Z,8.86
2023-02-11T08:50:09.532Z,9.16
2023-02-11T08:51:08.601Z,9.12
2023-02-11T08:52:08.626Z,9.05
2023-02-11T08:53:08.645Z,9.22
2023-02-11T08:54:08.644Z,9.11
2023-02-11T08:55:08.752Z,8.93
2023-02-11T08:56:08.724Z,8.89
2023-02-11T08:57:08.729Z,8.81
2023-02-11T08:58:08.786Z,8.75
2023-02-11T08:59:08.793Z,8.87
2023-02-11T09:00:08.857Z,8.69
2023-02-11T09:01:08.878Z,8.95
2023-02-11T09:02:08.922Z,8.93
2023-02-11T09:03:08.905Z,8.97
2023-02-11T09:04:08.928Z,8.90
2023-02-11T09:05:08.924Z,8.99
2023-02-11T09:06:08.957Z,8.89
2023-02-11T09:07:08.955Z,8.97
2023-02-11T09:08:08.974Z,9.08
2023-02-11T09:09:09.030Z,8.97
2023-02-11T09:10:09.124Z,9.02
2023-02-11T09:11:09.065Z,9.00
2023-02-11T09:12:09.215Z,8.90
2023-02-11T09:13:09.133Z,9.21
2023-02-11T09:14:09.129Z,9.36
2023-02-11T09:15:09.158Z,9.21
2023-02-11T09:16:09.248Z,9.16
2023-02-11T09:17:09.310Z,8.97
2023-02-11T09:18:09.287Z,9.08
2023-02-11T09:19:09.382Z,9.19
2023-02-11T09:20:10.818Z,8.95
2023-02-11T09:21:09.377Z,8.96
2023-02-11T09:22:09.423Z,8.95
2023-02-11T09:23:09.445Z,9.05
2023-02-11T09:24:09.507Z,9.34
2023-02-11T09:25:09.537Z,9.11
2023-02-11T09:26:09.779Z,9.16
2023-02-11T09:27:09.592Z,9.11
2023-02-11T09:28:09.768Z,9.11
2023-02-11T09:29:09.601Z,9.48
2023-02-11T09:30:09.611Z,9.47
2023-02-11T09:31:09.707Z,9.33
2023-02-11T09:32:10.117Z,9.27
2023-02-11T09:33:09.662Z,9.05
2023-02-11T09:34:09.671Z,8.99
2023-02-11T09:35:09.685Z,9.05
2023-02-11T09:36:09.679Z,9.26
2023-02-11T09:37:09.716Z,9.33
2023-02-11T09:38:09.734Z,9.19
2023-02-11T09:39:09.767Z,9.15
2023-02-11T09:40:10.768Z,9.33
2023-02-11T09:41:09.802Z,9.66
2023-02-11T09:42:09.866Z,9.72
2023-02-11T09:43:09.902Z,9.66
2023-02-11T09:44:09.896Z,9.67
2023-02-11T09:45:09.918Z,9.64
2023-02-11T09:46:10.069Z,9.40
2023-02-11T09:47:10.065Z,9.59
2023-02-11T09:48:10.092Z,9.73
2023-02-11T09:49:10.080Z,9.56
2023-02-11T09:50:10.092Z,9.47
2023-02-11T09:51:10.314Z,9.44
2023-02-11T09:52:10.976Z,9.47
2023-02-11T09:53:10.228Z,9.19
2023-02-11T09:54:10.266Z,9.45
2023-02-11T09:55:10.277Z,9.16
2023-02-11T09:56:10.399Z,9.29
2023-02-11T09:57:22.990Z,9.52
2023-02-11T09:58:10.344Z,9.36
2023-02-11T09:59:10.352Z,9.24
2023-02-11T10:00:10.351Z,9.02
2023-02-11T10:01:10.446Z,9.31
2023-02-11T10:02:10.451Z,9.48
2023-02-11T10:03:10.510Z,9.44
2023-02-11T10:04:10.686Z,9.34
2023-02-11T10:05:10.642Z,9.00
2023-02-11T10:06:10.647Z,9.18
2023-02-11T10:07:10.634Z,9.44
2023-02-11T10:08:10.624Z,9.45
2023-02-11T10:09:10.617Z,9.74
2023-02-11T10:10:10.675Z,9.55
2023-02-11T10:11:19.989Z,9.18
2023-02-11T10:12:10.719Z,9.15
2023-02-11T10:13:10.756Z,9.27
2023-02-11T10:14:10.790Z,9.15
2023-02-11T10:15:10.826Z,8.81
2023-02-11T10:16:10.996Z,8.75
2023-02-11T10:17:10.918Z,8.99
2023-02-11T10:18:10.934Z,9.15
2023-02-11T10:19:11.000Z,9.18
2023-02-11T10:20:11.053Z,9.15
2023-02-11T10:21:11.078Z,9.05
2023-02-11T10:22:11.078Z,8.93
2023-02-11T10:23:11.088Z,9.02
2023-02-11T10:24:11.110Z,8.97
2023-02-11T10:25:11.148Z,9.00
2023-02-11T10:26:11.167Z,9.12
2023-02-11T10:27:11.170Z,9.05
2023-02-11T10:28:11.265Z,9.03
2023-02-11T10:29:11.280Z,9.03
2023-02-11T10:30:11.281Z,8.97
2023-02-11T10:31:11.463Z,8.95
2023-02-11T10:32:11.384Z,8.97
2023-02-11T10:33:11.425Z,9.09
2023-02-11T10:34:11.417Z,8.89
2023-02-11T10:35:11.382Z,8.96
2023-02-11T10:36:11.390Z,9.21
2023-02-11T10:37:11.461Z,9.16
2023-02-11T10:38:11.481Z,9.31
2023-02-11T10:39:11.523Z,9.36
2023-02-11T10:40:11.573Z,9.34
2023-02-11T10:41:11.563Z,9.55
2023-02-11T10:42:11.572Z,9.40
2023-02-11T10:43:11.607Z,9.13
2023-02-11T10:44:11.629Z,9.18
2023-02-11T10:45:11.693Z,9.05
2023-02-11T10:46:11.844Z,9.24
2023-02-11T10:47:11.775Z,9.12
2023-02-11T10:48:11.845Z,9.00
2023-02-11T10:49:11.875Z,9.09
2023-02-11T10:50:11.946Z,9.11
2023-02-11T10:51:14.371Z,9.19
2023-02-11T10:52:12.067Z,9.19
2023-02-11T10:53:12.136Z,9.18
2023-02-11T10:54:13.749Z,9.13
2023-02-11T10:55:12.174Z,9.22
2023-02-11T10:56:12.180Z,9.21
2023-02-11T10:57:12.186Z,9.05
2023-02-11T10:58:12.258Z,9.13
2023-02-11T10:59:12.241Z,9.03
2023-02-11T11:00:12.276Z,8.93
2023-02-11T11:01:24.016Z,9.16
2023-02-11T11:02:12.329Z,9.09
2023-02-11T11:03:12.358Z,9.24
2023-02-11T11:04:12.441Z,9.33
2023-02-11T11:05:12.411Z,9.21
2023-02-11T11:06:12.422Z,9.24
2023-02-11T11:07:12.452Z,9.39
2023-02-11T11:08:12.437Z,9.63
2023-02-11T11:09:12.464Z,9.49
2023-02-11T11:10:12.516Z,9.37
2023-02-11T11:11:12.489Z,9.22
2023-02-11T11:12:12.549Z,9.13
2023-02-11T11:13:12.576Z,9.13
2023-02-11T11:14:12.635Z,9.19
2023-02-11T11:15:12.710Z,9.08
2023-02-11T11:16:12.829Z,9.03
2023-02-11T11:17:12.721Z,9.16
2023-02-11T11:18:21.934Z,9.13
2023-02-11T11:19:12.793Z,9.12
2023-02-11T11:20:12.860Z,9.33
2023-02-11T11:21:12.883Z,9.21
2023-02-11T11:22:12.894Z,9.24
2023-02-11T11:23:12.892Z,9.15
2023-02-11T11:24:12.932Z,9.40
2023-02-11T11:25:12.942Z,9.34
2023-02-11T11:26:12.964Z,9.26
2023-02-11T11:27:12.983Z,9.18
2023-02-11T11:28:13.044Z,9.02
2023-02-11T11:29:13.043Z,9.16
2023-02-11T11:30:13.075Z,9.42
2023-02-11T11:31:13.249Z,9.55
2023-02-11T11:32:13.326Z,9.52
2023-02-11T11:33:13.225Z,9.31
2023-02-11T11:34:13.186Z,9.37
2023-02-11T11:35:13.155Z,9.36
2023-02-11T11:36:13.204Z,9.27
2023-02-11T11:37:13.302Z,9.34
2023-02-11T11:38:13.292Z,9.42
2023-02-11T11:39:13.284Z,9.37
2023-02-11T11:40:13.312Z,9.12
2023-02-11T11:41:13.290Z,9.29
2023-02-11T11:42:13.272Z,9.39
2023-02-11T11:43:13.303Z,9.54
2023-02-11T11:44:13.302Z,9.52
2023-02-11T11:45:13.272Z,9.51
2023-02-11T11:46:13.313Z,9.67
2023-02-11T11:47:13.367Z,9.84
2023-02-11T11:48:13.415Z,9.45
2023-02-11T11:49:13.533Z,9.27
2023-02-11T11:50:13.424Z,9.37
2023-02-11T11:51:13.458Z,9.45
2023-02-11T11:52:13.435Z,9.49
2023-02-11T11:53:13.472Z,9.26
2023-02-11T11:54:13.508Z,9.36
2023-02-11T11:55:13.530Z,9.54
2023-02-11T11:56:13.555Z,9.64
2023-02-11T11:57:13.623Z,9.48
2023-02-11T11:58:13.616Z,9.48
2023-02-11T11:59:13.676Z,9.40
2023-02-11T12:00:13.782Z,9.48
2023-02-11T12:01:13.769Z,9.56
2023-02-11T12:02:13.893Z,9.63
2023-02-11T12:03:13.888Z,9.72
2023-02-11T12:04:13.846Z,9.99
2023-02-11T12:05:13.871Z,9.84
2023-02-11T12:06:13.908Z,9.63
2023-02-11T12:07:13.905Z,9.74
2023-02-11T12:08:13.921Z,9.77
2023-02-11T12:09:13.921Z,9.67
2023-02-11T12:10:14.074Z,9.54
2023-02-11T12:11:13.995Z,9.49
2023-02-11T12:12:14.015Z,9.49
2023-02-11T12:13:14.835Z,9.36
2023-02-11T12:14:14.127Z,9.42
2023-02-11T12:15:14.037Z,9.48
2023-02-11T12:16:14.220Z,9.63
2023-02-11T12:17:14.176Z,9.73
2023-02-11T12:18:14.162Z,9.70
2023-02-11T12:19:14.158Z,9.85
2023-02-11T12:20:14.359Z,10.02
2023-02-11T12:21:14.238Z,10.09
2023-02-11T12:22:14.281Z,10.05
2023-02-11T12:23:14.268Z,10.12
2023-02-11T12:24:17.157Z,9.99
2023-02-11T12:25:14.318Z,9.90
2023-02-11T12:26:14.389Z,9.85
2023-02-11T12:27:14.431Z,9.85
2023-02-11T12:28:14.491Z,9.99
2023-02-11T12:29:14.420Z,10.05
2023-02-11T12:30:14.475Z,10.07
2023-02-11T12:31:14.576Z,10.03
2023-02-11T12:32:14.615Z,9.81
2023-02-11T12:33:14.490Z,9.52
2023-02-11T12:34:14.572Z,9.76
2023-02-11T12:35:14.624Z,9.77
2023-02-11T12:36:14.686Z,9.67
2023-02-11T12:37:14.715Z,9.81
2023-02-11T12:38:14.776Z,9.69
2023-02-11T12:39:14.805Z,9.55
2023-02-11T12:40:14.864Z,9.63
2023-02-11T12:41:15.957Z,9.62
2023-02-11T12:42:14.958Z,9.72
2023-02-11T12:43:14.986Z,9.87
2023-02-11T12:44:15.048Z,9.95
2023-02-11T12:45:15.057Z,9.84
2023-02-11T12:46:15.136Z,9.63
2023-02-11T12:47:15.108Z,9.67
2023-02-11T12:48:15.108Z,9.91
2023-02-11T12:49:15.194Z,10.05
2023-02-11T12:50:15.234Z,10.12
2023-02-11T12:51:15.243Z,10.13
2023-02-11T12:52:15.309Z,10.12
2023-02-11T12:53:17.369Z,9.99
2023-02-11T12:54:15.338Z,10.06
2023-02-11T12:55:15.360Z,10.06
2023-02-11T12:56:15.360Z,10.05
2023-02-11T12:57:15.381Z,10.15
2023-02-11T12:58:15.399Z,10.21
2023-02-11T12:59:15.439Z,10.31
2023-02-11T13:00:15.472Z,10.13
2023-02-11T13:01:15.507Z,10.41
2023-02-11T13:02:15.585Z,10.45
2023-02-11T13:03:15.554Z,10.18
2023-02-11T13:04:15.572Z,10.21
2023-02-11T13:05:15.592Z,10.13
2023-02-11T13:06:15.623Z,10.23
2023-02-11T13:07:15.614Z,10.09
2023-02-11T13:08:15.693Z,10.00
2023-02-11T13:09:15.792Z,9.90
2023-02-11T13:10:15.754Z,10.05
2023-02-11T13:11:15.771Z,10.06
2023-02-11T13:12:15.767Z,10.07
2023-02-11T13:13:15.791Z,10.24
2023-02-11T13:14:15.812Z,10.38
2023-02-11T13:15:15.850Z,10.13
2023-02-11T13:16:15.911Z,10.05
2023-02-11T13:17:15.877Z,10.28
2023-02-11T13:18:18.959Z,10.42
2023-02-11T13:19:15.972Z,10.28
2023-02-11T13:20:15.956Z,10.34